Kapaa, HI

3:33 PM HST on July 11, 2014 (GMT -1000)
Wailua (KHIKAPAA4) Elev 355 ft | 22.07 °N, 159.37 °W | Change Station

Current weather conditions updated 22 seconds ago

Clear
Clear
83.8 °F
Feels Like 87 °F
N
3.1
Wind Variable Wind from NW
Gusts 3.8 mph

Today is forecast to be Warmer than yesterday. Showers ending by midday.

Today
High -- | Low -- °F
--% Chance of Precip.
Yesterday
High -- | Low -- °F
Precip. -- in
6:01 AM 7:24 PM
Full, 100% visible
Pressure 30.01 in
Visibility 10.0 miles
Clouds Clear
Heat Index 87 °F
Dew Point 68 °F
Humidity 58%
Rainfall 0.07 in
Snow Depth Not available.
UV 10 out of 12
Pollen Not available.
Air Quality Not available.
Flu Activity Sporadic
METAR PHLI 120053Z 04012KT 10SM CLR 28/19 A3002 RMK AO2 SLP162 T02830194

More Conditions Fewer Conditions

Pressure 30.01 in
Visibility 10.0 miles
Clouds Clear
Heat Index 87 °F
Dew Point 68 °F
Humidity 58%
Rainfall 0.07 in
Snow Depth Not available.
UV 10 out of 12
Pollen Not available.
Air Quality Not available.
Flu Activity Sporadic
METAR PHLI 120053Z 04012KT 10SM CLR 28/19 A3002 RMK AO2 SLP162 T02830194

More Conditions Fewer Conditions

10-Day Weather Forecast

Almanac

Astronomy

Jul. 11, 2014 Rise Set
Actual Time 6:01 AM HST 7:24 PM HST
Civil Twilight 5:36 AM HST 7:49 PM HST
Nautical Twilight 5:07 AM HST 8:18 PM HST
Astronomical Twilight 4:36 AM HST 8:49 PM HST
Moon 6:54 PM HST (7/11) 5:18 AM HST (7/11)
Length of Visible Light 14h 12m
Length of Day
13h 23m
Tomorrow will be 0m 33s shorter.
Full, 100% of the Moon is Illuminated
Today
Full
Jul 12
Full
Jul 18
Last Quarter
Jul 26
New
Aug 3
First Quarter

Today's Extremes

State Highs State Lows

Community

WunderPhotos

Upload Photos

1,732,625 photos uploaded!

WunderBlogs® & News

Nearby

Snow Depth

Station Depth Elevation
No new snow has been reported.

Earthquake Activity

City Distance Mag. Time & Date
No recent earthquake activity has been reported nearby.
Minimum magnitude displayed is 2.5.

Coastal Water Temperatures

Place Temperature
No Stations Reporting

Nearby Weather Stations

Station Location Temp. Heat Index Dew Point Humidity Wind Precip. Elev Updated Type
Wailua, Kapaa, HI 83.8 °F 87 °F 68 °F 58% NW  at  3.1 mph 0.00 in / hr 355 ft 3:33 PM HST Normal
Lihue, Lihue, HI 82.2 °F 85 °F 69 °F 63% NE  at  4.0 mph 0.00 in / hr 342 ft 3:12 PM HST Normal
Kalihiwai Ridge, Kilauea, HI 80.9 °F 84 °F 70 °F 70% East  at  6.0 mph 0.00 in / hr 300 ft 3:33 PM HST Rapid Fire
Pooku, Princeville, HI 82.9 °F 87 °F 69 °F 64% ENE  at  0.0 mph 0.00 in / hr 480 ft 3:33 PM HST Rapid Fire
Na Pali Properties on Kauai, Hanalei, HI 85.1 °F 86 °F 63 °F 47% East  at  6.7 mph 0.00 in / hr 36 ft 3:33 PM HST Rapid Fire
North Shore of Kauai, Princeville, HI 79.4 °F 82 °F 68 °F 67% East  at  5.4 mph 0.00 in / hr 200 ft 3:33 PM HST Rapid Fire
Koloa Landing - Whaler's Cove, Koloa, HI 86.4 °F 88 °F 65 °F 49% SSW  at  1.3 mph 0.00 in / hr 25 ft 3:25 PM HST Rapid Fire

Show More Stations Show Fewer Stations